Phoenix, AZ

5:02 PM MST on February 26, 2017 (GMT -0700)
Chungs Test Station | | Change Station

Elev 1220 ft 33.45 °N, 112.07 °W | Updated 19 seconds ago

Partly Cloudy
Partly Cloudy
66.9 °F
Feels Like 66.9 °F
N
0.6
Wind Variable Wind from WNW
Gusts 1.7 mph

Today
High -- | Low -- °F
--% Chance of Precip.
Yesterday
High -- | Low -- °F
Precip. -- in
Pressure 29.83 in
Visibility 10.0 miles
Clouds Few 8000 ft
Few 12000 ft
Scattered Clouds 25000 ft
Dew Point 33 °F
Humidity 28%
Rainfall Not available.
Snow Depth Not available.
6:59 AM 6:22 PM
New Moon, 0% visible
METAR KPHX 262351Z 22007KT 10SM FEW080 FEW120 SCT250 19/M03 A2986 RMK AO2 SLP102 T01941028 10211 20161 55004
Pressure 29.83 in
Visibility 10.0 miles
Clouds Few 8000 ft
Few 12000 ft
Scattered Clouds 25000 ft
Dew Point 33 °F
Humidity 28%
Rainfall Not available.
Snow Depth Not available.
6:59 AM 6:22 PM
New Moon, 0% visible
METAR KPHX 262351Z 22007KT 10SM FEW080 FEW120 SCT250 19/M03 A2986 RMK AO2 SLP102 T01941028 10211 20161 55004

Get Your Daily Forecast Email!

Thanks for signing up!

Be on the lookout for a verification email in your inbox.

You'll start receiving the daily forecast at 8 AM.

×

10-Day Weather Forecast

Almanac

Astronomy

Feb. 26, 2017 Rise Set
Actual Time
Civil Twilight
Nautical Twilight
Astronomical Twilight
Moon
Length of Visible Light
Length of Day
Tomorrow will be .
, % of the Moon is Illuminated

Today's Extremes

State Highs State Lows

Community

WunderPhotos

Upload Photos

1,962,540 photos uploaded!

WunderBlog® & News

Nearby

Air Quality

  Air Quality AQ Index Pollutant
Not available.

Snow Depth

Station Depth Elevation

Earthquake Activity

City Distance Mag. Time & Date
Minimum magnitude displayed is 2.5.

Coastal Water Temperatures

Place Temperature

Stations

Nearby Weather Stations

Station Location Temp. Windchill Dew Point Humidity Wind Precip. Elev Updated Type
                   

Watches & Warnings

There are currently no watches in effect.